DAL2546 KMCO-KLGA
Flight info
| Callsign | DAL2546 |
|---|---|
| Flight time | N/A |
| Altitude | 35000 |
| Route | FATHE4 VIYAP Q87 HURTS PROUD2 |
| Aircraft | A321/M-SDE3FGHIRWY/LB1 |
Departure
| Time | 2026-04-23 19:16 |
|---|---|
| Airport | Orlando International Airport (KMCO) |
Arrival
| Time | N/A |
|---|---|
| Airport | LaGuardia Airport (KLGA) |
| Time | Latitude | Longitude | Altitude | Speed | Heading |
|---|---|---|---|---|---|
| 2026-04-23 19:01 | 28.42882 | -81.30088 | 113 ft | 0 kts | 146° |
| 2026-04-23 19:04 | 28.42883 | -81.30088 | 113 ft | 0 kts | 146° |
| 2026-04-23 19:05 | 28.42882 | -81.30088 | 113 ft | 0 kts | 146° |
| 2026-04-23 19:05 | 28.42883 | -81.30088 | 113 ft | 0 kts | 146° |
| 2026-04-23 19:05 | 28.42882 | -81.30088 | 113 ft | 0 kts | 146° |
| 2026-04-23 19:06 | 28.42897 | -81.30098 | 96 ft | 3 kts | 146° |
| 2026-04-23 19:06 | 28.42912 | -81.30110 | 94 ft | 3 kts | 143° |
| 2026-04-23 19:06 | 28.42926 | -81.30126 | 93 ft | 3 kts | 112° |
| 2026-04-23 19:06 | 28.42931 | -81.30147 | 94 ft | 3 kts | 95° |
| 2026-04-23 19:07 | 28.42932 | -81.30160 | 94 ft | 0 kts | 95° |
| 2026-04-23 19:10 | 28.42939 | -81.30146 | 97 ft | 4 kts | 50° |
| 2026-04-23 19:10 | 28.42960 | -81.30114 | 97 ft | 5 kts | 59° |
| 2026-04-23 19:10 | 28.42975 | -81.30066 | 97 ft | 8 kts | 77° |
| 2026-04-23 19:11 | 28.42972 | -81.30003 | 97 ft | 8 kts | 105° |
| 2026-04-23 19:11 | 28.42947 | -81.29942 | 96 ft | 8 kts | 122° |
| 2026-04-23 19:11 | 28.42916 | -81.29877 | 95 ft | 9 kts | 107° |
| 2026-04-23 19:11 | 28.42911 | -81.29804 | 97 ft | 9 kts | 90° |
| 2026-04-23 19:12 | 28.42911 | -81.29756 | 97 ft | 9 kts | 86° |
| 2026-04-23 19:12 | 28.42959 | -81.29705 | 97 ft | 9 kts | 1° |
| 2026-04-23 19:12 | 28.43042 | -81.29707 | 98 ft | 13 kts | 359° |
| 2026-04-23 19:12 | 28.43127 | -81.29708 | 96 ft | 11 kts | 359° |
| 2026-04-23 19:13 | 28.43200 | -81.29709 | 95 ft | 10 kts | 359° |
| 2026-04-23 19:13 | 28.43262 | -81.29710 | 97 ft | 11 kts | 359° |
| 2026-04-23 19:13 | 28.43348 | -81.29711 | 97 ft | 12 kts | 359° |
| 2026-04-23 19:13 | 28.43433 | -81.29711 | 97 ft | 13 kts | 359° |
| 2026-04-23 19:14 | 28.43520 | -81.29712 | 97 ft | 12 kts | 3° |
| 2026-04-23 19:14 | 28.43550 | -81.29654 | 96 ft | 8 kts | 89° |
| 2026-04-23 19:14 | 28.43545 | -81.29601 | 98 ft | 6 kts | 116° |
| 2026-04-23 19:14 | 28.43517 | -81.29589 | 98 ft | 4 kts | 174° |
| 2026-04-23 19:15 | 28.43474 | -81.29587 | 97 ft | 13 kts | 179° |
| 2026-04-23 19:15 | 28.43167 | -81.29584 | 100 ft | 78 kts | 179° |
| 2026-04-23 19:15 | 28.42429 | -81.29576 | 97 ft | 132 kts | 179° |
| 2026-04-23 19:15 | 28.41376 | -81.29567 | 205 ft | 163 kts | 177° |
| 2026-04-23 19:16 | 28.40260 | -81.29555 | 784 ft | 161 kts | 175° |
| 2026-04-23 19:16 | 28.39119 | -81.29523 | 1291 ft | 166 kts | 171° |
| 2026-04-23 19:16 | 28.38025 | -81.29183 | 1805 ft | 164 kts | 148° |
| 2026-04-23 19:17 | 28.35980 | -81.27641 | 2182 ft | 197 kts | 144° |
| 2026-04-23 19:17 | 28.34806 | -81.26709 | 2320 ft | 215 kts | 136° |
| 2026-04-23 19:17 | 28.33720 | -81.25413 | 2473 ft | 240 kts | 131° |
| 2026-04-23 19:17 | 28.32554 | -81.23972 | 3051 ft | 252 kts | 129° |
| 2026-04-23 19:18 | 28.31739 | -81.22225 | 3885 ft | 255 kts | 102° |
| 2026-04-23 19:18 | 28.31758 | -81.20214 | 4641 ft | 260 kts | 78° |
| 2026-04-23 19:18 | 28.32262 | -81.18219 | 5338 ft | 265 kts | 73° |
| 2026-04-23 19:18 | 28.33012 | -81.16291 | 6046 ft | 272 kts | 56° |
| 2026-04-23 19:19 | 28.36298 | -81.14191 | 7450 ft | 285 kts | 1° |
| 2026-04-23 19:19 | 28.38256 | -81.14539 | 8195 ft | 287 kts | 345° |
| 2026-04-23 19:20 | 28.42141 | -81.15754 | 9667 ft | 292 kts | 343° |
| 2026-04-23 19:20 | 28.44089 | -81.16367 | 10233 ft | 300 kts | 343° |
| 2026-04-23 19:20 | 28.46175 | -81.17024 | 10380 ft | 322 kts | 343° |
| 2026-04-23 19:20 | 28.48409 | -81.17726 | 10497 ft | 343 kts | 343° |
| 2026-04-23 19:21 | 28.50753 | -81.18460 | 10893 ft | 353 kts | 343° |
| 2026-04-23 19:21 | 28.55543 | -81.19952 | 12112 ft | 360 kts | 343° |
| 2026-04-23 19:21 | 28.57962 | -81.20704 | 12774 ft | 362 kts | 343° |
| 2026-04-23 19:22 | 28.60402 | -81.21463 | 13419 ft | 365 kts | 342° |
| 2026-04-23 19:22 | 28.62865 | -81.22229 | 14080 ft | 368 kts | 342° |
| 2026-04-23 19:22 | 28.67846 | -81.23774 | 15200 ft | 374 kts | 342° |
| 2026-04-23 19:23 | 28.70363 | -81.24554 | 15742 ft | 377 kts | 342° |
| 2026-04-23 19:23 | 28.72904 | -81.25344 | 16281 ft | 380 kts | 342° |
| 2026-04-23 19:23 | 28.75460 | -81.26142 | 16816 ft | 383 kts | 342° |
| 2026-04-23 19:24 | 28.80633 | -81.27761 | 17867 ft | 388 kts | 342° |
| 2026-04-23 19:24 | 28.83252 | -81.28565 | 18377 ft | 392 kts | 345° |
| 2026-04-23 19:24 | 28.88732 | -81.29238 | 19236 ft | 399 kts | 353° |
| 2026-04-23 19:25 | 28.94309 | -81.29710 | 20117 ft | 404 kts | 353° |
| 2026-04-23 19:25 | 28.99949 | -81.30191 | 20999 ft | 409 kts | 353° |
| 2026-04-23 19:26 | 29.05643 | -81.30790 | 21863 ft | 413 kts | 351° |
| 2026-04-23 19:26 | 29.08509 | -81.31128 | 22288 ft | 415 kts | 351° |
| 2026-04-23 19:27 | 29.14302 | -81.31733 | 23121 ft | 421 kts | 353° |
| 2026-04-23 19:27 | 29.23164 | -81.32203 | 24229 ft | 429 kts | 354° |
| 2026-04-23 19:28 | 29.29150 | -81.32492 | 24899 ft | 433 kts | 354° |
| 2026-04-23 19:28 | 29.35193 | -81.32857 | 25555 ft | 437 kts | 354° |
| 2026-04-23 19:29 | 29.38237 | -81.33052 | 25873 ft | 439 kts | 354° |
| 2026-04-23 19:29 | 29.44362 | -81.33436 | 26497 ft | 443 kts | 354° |
| 2026-04-23 19:30 | 29.50546 | -81.33814 | 27096 ft | 447 kts | 354° |
| 2026-04-23 19:30 | 29.53665 | -81.34002 | 27383 ft | 450 kts | 354° |
| 2026-04-23 19:30 | 29.59946 | -81.34374 | 27958 ft | 454 kts | 355° |
| 2026-04-23 19:31 | 29.63106 | -81.34561 | 28236 ft | 456 kts | 355° |
| 2026-04-23 19:31 | 29.66280 | -81.34752 | 28507 ft | 458 kts | 355° |
| 2026-04-23 19:31 | 29.69424 | -81.34938 | 28771 ft | 460 kts | 355° |
| 2026-04-23 19:31 | 29.72624 | -81.35122 | 29047 ft | 462 kts | 355° |
| 2026-04-23 19:32 | 29.75837 | -81.35305 | 29315 ft | 464 kts | 355° |
| 2026-04-23 19:32 | 29.79069 | -81.35487 | 29589 ft | 466 kts | 355° |
| 2026-04-23 19:32 | 29.82305 | -81.35669 | 29924 ft | 466 kts | 355° |
| 2026-04-23 19:32 | 29.85540 | -81.35852 | 30299 ft | 465 kts | 355° |
| 2026-04-23 19:33 | 29.88766 | -81.36034 | 30624 ft | 464 kts | 355° |
| 2026-04-23 19:33 | 29.91987 | -81.36216 | 30952 ft | 463 kts | 355° |
| 2026-04-23 19:33 | 29.98412 | -81.36584 | 31612 ft | 461 kts | 355° |
| 2026-04-23 19:34 | 30.01615 | -81.36772 | 31930 ft | 461 kts | 355° |
| 2026-04-23 19:34 | 30.04810 | -81.36959 | 32261 ft | 460 kts | 355° |
| 2026-04-23 19:34 | 30.11190 | -81.37330 | 32913 ft | 458 kts | 355° |
| 2026-04-23 19:35 | 30.14366 | -81.37515 | 33229 ft | 457 kts | 355° |
| 2026-04-23 19:35 | 30.17542 | -81.37700 | 33530 ft | 457 kts | 355° |
| 2026-04-23 19:35 | 30.19638 | -81.37822 | 33753 ft | 456 kts | 355° |
| 2026-04-23 19:35 | 30.22806 | -81.38006 | 34068 ft | 455 kts | 355° |
| 2026-04-23 19:36 | 30.25970 | -81.38191 | 34367 ft | 454 kts | 355° |
| 2026-04-23 19:36 | 30.29122 | -81.38373 | 34653 ft | 453 kts | 355° |
| 2026-04-23 19:36 | 30.32268 | -81.38554 | 34921 ft | 452 kts | 355° |
| 2026-04-23 19:36 | 30.35412 | -81.38736 | 35100 ft | 452 kts | 355° |
| 2026-04-23 19:37 | 30.38542 | -81.38915 | 35149 ft | 449 kts | 355° |
| 2026-04-23 19:37 | 30.44767 | -81.39277 | 35144 ft | 447 kts | 355° |
| 2026-04-23 19:38 | 30.50977 | -81.39626 | 35144 ft | 447 kts | 356° |
| 2026-04-23 19:38 | 30.57189 | -81.39945 | 35150 ft | 447 kts | 356° |
| 2026-04-23 19:39 | 30.63397 | -81.40265 | 35149 ft | 447 kts | 356° |
| 2026-04-23 19:39 | 30.69607 | -81.40587 | 35151 ft | 447 kts | 356° |
| 2026-04-23 19:40 | 30.75812 | -81.40912 | 35149 ft | 447 kts | 356° |
| 2026-04-23 19:40 | 30.82020 | -81.41251 | 35148 ft | 446 kts | 356° |
| 2026-04-23 19:41 | 30.88224 | -81.41591 | 35144 ft | 446 kts | 356° |
| 2026-04-23 19:41 | 30.94427 | -81.41915 | 35140 ft | 446 kts | 356° |
| 2026-04-23 19:42 | 31.00627 | -81.42231 | 35138 ft | 446 kts | 356° |
| 2026-04-23 19:42 | 31.06820 | -81.42563 | 35144 ft | 445 kts | 356° |
| 2026-04-23 19:43 | 31.13008 | -81.42904 | 35144 ft | 445 kts | 356° |
| 2026-04-23 19:43 | 31.19193 | -81.43238 | 35143 ft | 445 kts | 356° |
| 2026-04-23 19:44 | 31.25356 | -81.42872 | 35144 ft | 446 kts | 11° |
| 2026-04-23 19:44 | 31.31135 | -81.40380 | 35140 ft | 447 kts | 23° |
| 2026-04-23 19:45 | 31.36780 | -81.37314 | 35134 ft | 447 kts | 23° |
| 2026-04-23 19:45 | 31.42423 | -81.34247 | 35124 ft | 447 kts | 23° |
| 2026-04-23 19:46 | 31.48066 | -81.31180 | 35126 ft | 447 kts | 23° |
| 2026-04-23 19:46 | 31.53706 | -81.28111 | 35121 ft | 447 kts | 23° |
| 2026-04-23 19:47 | 31.59351 | -81.25037 | 35114 ft | 447 kts | 23° |
| 2026-04-23 19:47 | 31.64992 | -81.21960 | 35115 ft | 447 kts | 23° |
| 2026-04-23 19:48 | 31.70636 | -81.18887 | 35116 ft | 447 kts | 23° |
| 2026-04-23 19:48 | 31.76278 | -81.15801 | 35105 ft | 447 kts | 23° |
| 2026-04-23 19:49 | 31.81915 | -81.12708 | 35099 ft | 447 kts | 23° |
| 2026-04-23 19:49 | 31.87545 | -81.09614 | 35094 ft | 447 kts | 23° |
| 2026-04-23 19:50 | 31.93175 | -81.06523 | 35095 ft | 446 kts | 23° |
| 2026-04-23 19:50 | 31.98806 | -81.03433 | 35095 ft | 446 kts | 24° |
| 2026-04-23 19:51 | 32.04431 | -81.00318 | 35095 ft | 447 kts | 24° |
| 2026-04-23 19:51 | 32.10040 | -80.97178 | 35093 ft | 446 kts | 24° |
| 2026-04-23 19:52 | 32.15646 | -80.94027 | 35125 ft | 446 kts | 24° |
| 2026-04-23 19:52 | 32.21249 | -80.90875 | 35131 ft | 446 kts | 24° |
| 2026-04-23 19:53 | 32.26854 | -80.87727 | 35133 ft | 446 kts | 24° |
| 2026-04-23 19:53 | 32.32458 | -80.84579 | 35131 ft | 446 kts | 24° |
| 2026-04-23 19:54 | 32.38065 | -80.81427 | 35113 ft | 446 kts | 24° |
| 2026-04-23 19:54 | 32.43667 | -80.78269 | 35113 ft | 446 kts | 24° |
| 2026-04-23 19:55 | 32.49272 | -80.75104 | 35115 ft | 446 kts | 24° |
| 2026-04-23 19:55 | 32.54871 | -80.71932 | 35115 ft | 446 kts | 24° |
| 2026-04-23 19:56 | 32.60432 | -80.68776 | 35115 ft | 446 kts | 24° |
| 2026-04-23 19:56 | 32.66035 | -80.65599 | 35110 ft | 446 kts | 24° |
| 2026-04-23 19:57 | 32.71635 | -80.62414 | 35099 ft | 446 kts | 24° |
| 2026-04-23 19:57 | 32.77210 | -80.59153 | 35094 ft | 447 kts | 25° |
| 2026-04-23 19:58 | 32.82760 | -80.55830 | 35095 ft | 447 kts | 25° |
| 2026-04-23 19:58 | 32.88315 | -80.52514 | 35098 ft | 447 kts | 25° |
| 2026-04-23 19:59 | 32.93874 | -80.49204 | 35100 ft | 447 kts | 25° |
| 2026-04-23 19:59 | 32.99434 | -80.45895 | 35082 ft | 447 kts | 25° |
| 2026-04-23 20:00 | 33.04995 | -80.42579 | 35077 ft | 447 kts | 25° |
| 2026-04-23 20:00 | 33.10545 | -80.39250 | 35077 ft | 447 kts | 25° |
| 2026-04-23 20:01 | 33.16094 | -80.35917 | 35071 ft | 446 kts | 25° |
| 2026-04-23 20:01 | 33.21643 | -80.32588 | 35073 ft | 446 kts | 25° |
| 2026-04-23 20:02 | 33.27192 | -80.29261 | 35077 ft | 446 kts | 25° |
| 2026-04-23 20:02 | 33.32737 | -80.25925 | 35078 ft | 446 kts | 25° |
| 2026-04-23 20:03 | 33.38275 | -80.22582 | 35082 ft | 446 kts | 25° |
| 2026-04-23 20:03 | 33.43809 | -80.19245 | 35083 ft | 445 kts | 25° |
| 2026-04-23 20:04 | 33.49304 | -80.15932 | 35090 ft | 445 kts | 25° |
| 2026-04-23 20:04 | 33.54834 | -80.12587 | 35085 ft | 445 kts | 25° |
| 2026-04-23 20:05 | 33.60354 | -80.09242 | 35083 ft | 444 kts | 25° |
| 2026-04-23 20:05 | 33.65871 | -80.05895 | 35073 ft | 444 kts | 25° |
| 2026-04-23 20:06 | 33.71382 | -80.02547 | 35065 ft | 444 kts | 25° |
| 2026-04-23 20:06 | 33.76894 | -79.99200 | 35063 ft | 444 kts | 25° |
| 2026-04-23 20:07 | 33.82398 | -79.95847 | 35061 ft | 443 kts | 25° |
| 2026-04-23 20:07 | 33.87897 | -79.92488 | 35063 ft | 443 kts | 25° |
| 2026-04-23 20:08 | 33.93390 | -79.89131 | 35068 ft | 443 kts | 25° |
| 2026-04-23 20:08 | 33.98887 | -79.85776 | 35057 ft | 443 kts | 25° |
| 2026-04-23 20:09 | 34.04378 | -79.82408 | 35055 ft | 443 kts | 25° |
| 2026-04-23 20:09 | 34.09864 | -79.79043 | 35051 ft | 442 kts | 25° |
| 2026-04-23 20:10 | 34.14421 | -79.76241 | 35052 ft | 442 kts | 25° |
| 2026-04-23 20:10 | 34.20827 | -79.72295 | 35052 ft | 442 kts | 25° |
| 2026-04-23 20:11 | 34.26306 | -79.68925 | 35051 ft | 442 kts | 25° |
| 2026-04-23 20:11 | 34.31781 | -79.65544 | 35053 ft | 442 kts | 25° |
| 2026-04-23 20:12 | 34.37217 | -79.62179 | 35051 ft | 442 kts | 25° |
| 2026-04-23 20:12 | 34.42689 | -79.58800 | 35048 ft | 442 kts | 25° |
| 2026-04-23 20:13 | 34.48156 | -79.55406 | 35054 ft | 441 kts | 25° |
| 2026-04-23 20:13 | 34.53619 | -79.52009 | 35047 ft | 441 kts | 25° |
| 2026-04-23 20:14 | 34.59057 | -79.48534 | 35038 ft | 442 kts | 26° |
| 2026-04-23 20:14 | 34.64419 | -79.44890 | 35040 ft | 442 kts | 27° |
| 2026-04-23 20:15 | 34.69778 | -79.41217 | 35036 ft | 442 kts | 27° |
| 2026-04-23 20:15 | 34.74833 | -79.36980 | 35011 ft | 446 kts | 39° |
| 2026-04-23 20:16 | 34.79454 | -79.31925 | 35068 ft | 449 kts | 39° |
| 2026-04-23 20:16 | 34.84121 | -79.26858 | 35043 ft | 449 kts | 39° |
| 2026-04-23 20:17 | 34.89151 | -79.22460 | 35043 ft | 444 kts | 30° |
| 2026-04-23 20:17 | 34.94337 | -79.18378 | 35039 ft | 443 kts | 30° |
| 2026-04-23 20:18 | 34.99513 | -79.14311 | 35024 ft | 442 kts | 30° |
| 2026-04-23 20:18 | 35.04680 | -79.10231 | 35020 ft | 442 kts | 30° |
| 2026-04-23 20:19 | 35.09842 | -79.06148 | 35018 ft | 442 kts | 30° |
| 2026-04-23 20:19 | 35.14999 | -79.02066 | 35020 ft | 442 kts | 30° |
| 2026-04-23 20:20 | 35.20157 | -78.97981 | 35019 ft | 442 kts | 30° |
| 2026-04-23 20:20 | 35.25312 | -78.93895 | 35019 ft | 441 kts | 31° |
| 2026-04-23 20:21 | 35.30425 | -78.89831 | 35036 ft | 441 kts | 31° |
| 2026-04-23 20:21 | 35.35575 | -78.85734 | 35043 ft | 441 kts | 31° |
| 2026-04-23 20:22 | 35.40720 | -78.81623 | 35043 ft | 441 kts | 31° |
| 2026-04-23 20:22 | 35.45852 | -78.77485 | 35048 ft | 441 kts | 31° |
| 2026-04-23 20:23 | 35.50974 | -78.73346 | 35043 ft | 441 kts | 31° |
| 2026-04-23 20:23 | 35.56089 | -78.69193 | 35042 ft | 440 kts | 31° |
| 2026-04-23 20:24 | 35.61157 | -78.65084 | 35039 ft | 440 kts | 31° |
| 2026-04-23 20:24 | 35.66266 | -78.60945 | 35039 ft | 440 kts | 31° |
| 2026-04-23 20:25 | 35.70507 | -78.57500 | 35036 ft | 439 kts | 31° |
| 2026-04-23 20:25 | 35.75608 | -78.53348 | 35036 ft | 439 kts | 31° |
| 2026-04-23 20:26 | 35.80698 | -78.49195 | 35037 ft | 439 kts | 31° |
| 2026-04-23 20:26 | 35.85785 | -78.45035 | 35032 ft | 439 kts | 31° |
| 2026-04-23 20:27 | 35.90868 | -78.40872 | 35032 ft | 438 kts | 31° |
| 2026-04-23 20:27 | 35.95946 | -78.36709 | 35030 ft | 438 kts | 31° |
| 2026-04-23 20:28 | 36.01028 | -78.32548 | 35032 ft | 438 kts | 31° |
| 2026-04-23 20:28 | 36.06105 | -78.28380 | 35036 ft | 438 kts | 31° |
| 2026-04-23 20:29 | 36.11178 | -78.24201 | 35036 ft | 438 kts | 31° |
| 2026-04-23 20:29 | 36.16245 | -78.20020 | 35038 ft | 438 kts | 31° |
| 2026-04-23 20:30 | 36.21304 | -78.15834 | 35037 ft | 437 kts | 31° |
| 2026-04-23 20:30 | 36.28859 | -78.09594 | 35023 ft | 437 kts | 31° |
| 2026-04-23 20:31 | 36.33906 | -78.05403 | 35020 ft | 436 kts | 31° |
| 2026-04-23 20:31 | 36.38945 | -78.01215 | 35027 ft | 436 kts | 31° |
| 2026-04-23 20:32 | 36.43984 | -77.97032 | 35029 ft | 435 kts | 31° |
| 2026-04-23 20:32 | 36.49013 | -77.92841 | 35031 ft | 435 kts | 31° |
| 2026-04-23 20:33 | 36.54044 | -77.88646 | 35037 ft | 435 kts | 31° |
| 2026-04-23 20:33 | 36.59073 | -77.84456 | 35008 ft | 435 kts | 31° |
| 2026-04-23 20:34 | 36.64097 | -77.80256 | 35008 ft | 435 kts | 31° |
| 2026-04-23 20:34 | 36.69115 | -77.76040 | 35012 ft | 435 kts | 31° |
| 2026-04-23 20:35 | 36.74133 | -77.71821 | 35008 ft | 435 kts | 31° |
| 2026-04-23 20:35 | 36.79149 | -77.67609 | 35010 ft | 435 kts | 31° |
| 2026-04-23 20:36 | 36.84162 | -77.63389 | 35009 ft | 435 kts | 31° |
| 2026-04-23 20:36 | 36.89173 | -77.59161 | 35007 ft | 435 kts | 31° |
| 2026-04-23 20:37 | 36.94178 | -77.54925 | 35002 ft | 434 kts | 31° |
| 2026-04-23 20:37 | 36.99149 | -77.50722 | 34999 ft | 434 kts | 31° |
| 2026-04-23 20:38 | 37.04151 | -77.46480 | 35004 ft | 434 kts | 30° |
| 2026-04-23 20:38 | 37.09150 | -77.42235 | 35004 ft | 434 kts | 31° |
| 2026-04-23 20:39 | 37.14145 | -77.37986 | 34999 ft | 434 kts | 31° |
| 2026-04-23 20:39 | 37.19131 | -77.33730 | 35005 ft | 434 kts | 30° |
| 2026-04-23 20:40 | 37.24121 | -77.29476 | 35007 ft | 433 kts | 30° |
| 2026-04-23 20:40 | 37.29103 | -77.25223 | 34997 ft | 433 kts | 30° |
| 2026-04-23 20:41 | 37.34084 | -77.20966 | 34996 ft | 433 kts | 30° |
| 2026-04-23 20:41 | 37.39057 | -77.16700 | 34989 ft | 433 kts | 30° |
| 2026-04-23 20:42 | 37.44024 | -77.12420 | 34992 ft | 433 kts | 30° |
| 2026-04-23 20:42 | 37.48991 | -77.08147 | 34993 ft | 432 kts | 30° |
| 2026-04-23 20:43 | 37.53924 | -77.03901 | 35004 ft | 432 kts | 30° |
| 2026-04-23 20:43 | 37.58889 | -76.99621 | 35003 ft | 432 kts | 30° |
| 2026-04-23 20:44 | 37.63845 | -76.95332 | 35002 ft | 432 kts | 30° |
| 2026-04-23 20:44 | 37.68799 | -76.91047 | 34996 ft | 432 kts | 30° |
| 2026-04-23 20:45 | 37.73754 | -76.86757 | 34993 ft | 432 kts | 30° |
| 2026-04-23 20:45 | 37.78700 | -76.82460 | 34980 ft | 431 kts | 30° |
| 2026-04-23 20:46 | 37.83645 | -76.78155 | 34985 ft | 431 kts | 30° |
| 2026-04-23 20:46 | 37.88586 | -76.73849 | 34984 ft | 431 kts | 30° |
| 2026-04-23 20:47 | 37.93522 | -76.69537 | 34998 ft | 431 kts | 30° |
| 2026-04-23 20:47 | 37.98457 | -76.65215 | 34995 ft | 431 kts | 30° |
| 2026-04-23 20:48 | 38.03393 | -76.60896 | 34995 ft | 431 kts | 30° |
| 2026-04-23 20:48 | 38.08327 | -76.56569 | 34994 ft | 431 kts | 30° |
| 2026-04-23 20:49 | 38.13255 | -76.52236 | 34994 ft | 431 kts | 30° |
| 2026-04-23 20:49 | 38.18181 | -76.47902 | 34995 ft | 430 kts | 30° |
| 2026-04-23 20:50 | 38.20644 | -76.45736 | 34802 ft | 431 kts | 30° |
| 2026-04-23 20:50 | 38.23107 | -76.43565 | 34514 ft | 430 kts | 30° |
| 2026-04-23 20:50 | 38.25569 | -76.41391 | 34232 ft | 431 kts | 30° |
| 2026-04-23 20:50 | 38.28032 | -76.39215 | 33957 ft | 432 kts | 30° |
| 2026-04-23 20:51 | 38.30504 | -76.37029 | 33627 ft | 433 kts | 30° |
| 2026-04-23 20:51 | 38.32975 | -76.34836 | 33314 ft | 433 kts | 30° |
| 2026-04-23 20:51 | 38.35446 | -76.32640 | 32997 ft | 433 kts | 30° |
| 2026-04-23 20:51 | 38.37888 | -76.30472 | 32689 ft | 434 kts | 30° |
| 2026-04-23 20:52 | 38.40396 | -76.28247 | 32369 ft | 434 kts | 30° |
| 2026-04-23 20:52 | 38.42841 | -76.26080 | 32065 ft | 434 kts | 30° |
| 2026-04-23 20:52 | 38.45350 | -76.23851 | 31756 ft | 433 kts | 30° |
| 2026-04-23 20:52 | 38.47813 | -76.21657 | 31450 ft | 431 kts | 30° |
| 2026-04-23 20:53 | 38.50262 | -76.19475 | 31153 ft | 428 kts | 30° |
| 2026-04-23 20:53 | 38.52665 | -76.17331 | 30861 ft | 426 kts | 31° |
| 2026-04-23 20:53 | 38.55085 | -76.15169 | 30570 ft | 423 kts | 31° |
| 2026-04-23 20:53 | 38.57490 | -76.13015 | 30280 ft | 421 kts | 31° |
| 2026-04-23 20:54 | 38.59882 | -76.10873 | 29993 ft | 419 kts | 31° |
| 2026-04-23 20:54 | 38.62261 | -76.08743 | 29658 ft | 417 kts | 31° |
| 2026-04-23 20:54 | 38.64629 | -76.06610 | 29324 ft | 415 kts | 31° |
| 2026-04-23 20:54 | 38.66968 | -76.04466 | 29001 ft | 413 kts | 31° |
| 2026-04-23 20:55 | 38.69331 | -76.02279 | 28674 ft | 412 kts | 31° |
| 2026-04-23 20:55 | 38.71609 | -76.00157 | 28359 ft | 410 kts | 31° |
| 2026-04-23 20:55 | 38.73911 | -75.98007 | 28021 ft | 409 kts | 31° |
| 2026-04-23 20:55 | 38.76203 | -75.95862 | 27710 ft | 407 kts | 31° |
| 2026-04-23 20:56 | 38.78488 | -75.93725 | 27404 ft | 406 kts | 31° |
| 2026-04-23 20:56 | 38.80764 | -75.91598 | 27094 ft | 404 kts | 31° |
| 2026-04-23 20:56 | 38.83030 | -75.89483 | 26918 ft | 402 kts | 31° |
| 2026-04-23 20:56 | 38.85296 | -75.87370 | 26965 ft | 403 kts | 31° |
| 2026-04-23 20:57 | 38.87569 | -75.85257 | 26958 ft | 403 kts | 31° |
| 2026-04-23 20:57 | 38.89839 | -75.83142 | 26962 ft | 403 kts | 31° |
| 2026-04-23 20:57 | 38.92108 | -75.81026 | 26968 ft | 403 kts | 31° |
| 2026-04-23 20:57 | 38.94375 | -75.78915 | 26969 ft | 403 kts | 31° |
| 2026-04-23 20:58 | 38.96639 | -75.76796 | 26969 ft | 403 kts | 31° |